Latest Weather Observations for Braidwood

IDN60901

Issued at 9:31 am EST Saturday 30 April 2016 (issued every 10 minutes, with the page automatically refreshed every 10 minutes)

About weather observations | Map of Canberra area stations | Latest observations for Canberra area | Other Formats
Station Details ID: 069132 Name: BRAIDWOOD RACECOURSE AWS Lat: -35.43 Lon: 149.78 Height: 665.2 m
Data from the previous 72 hours. | See also: Recent months at Braidwood
Date/Time
EST
Tmp

°C
App
Tmp
°C
Dew
Point
°C
Rel
Hum
%
Delta-T

°C
Wind Press
QNH
hPa
Press
MSL
hPa
Rain
since
9 am
mm
Dir
 
Spd
km/h
Gust
km/h
Spd
kts
Gust
kts
30/09:30am 17.1 17.0 14.0 82 1.8 NNW 7 15 4 8 1019.9 1019.0 0.0
30/09:00am 16.4 15.4 13.5 83 1.7 NW 11 17 6 9 1020.0 1019.1 0.4
30/08:30am 15.6 15.0 13.4 87 1.3 NW 9 19 5 10 1020.1 1019.3 0.4
30/08:00am 15.2 15.0 13.6 90 0.9 NNW 7 13 4 7 1019.9 1019.0 0.4
30/07:30am 14.7 14.3 13.1 90 0.9 NNW 7 13 4 7 1019.4 1018.5 0.4
30/07:00am 14.6 14.9 13.3 92 0.7 NNW 4 9 2 5 1019.4 1018.5 0.4
30/06:30am 14.6 14.5 13.3 92 0.7 NNW 6 13 3 7 1019.2 1018.3 0.4
30/06:00am 14.4 14.3 13.3 93 0.6 N 6 13 3 7 1018.7 1017.8 0.4
30/05:30am 14.4 14.0 13.1 92 0.7 NNW 7 13 4 7 1018.4 1017.5 0.4
30/05:00am 14.9 15.2 13.4 91 0.9 NNW 4 9 2 5 1018.7 1017.8 0.4
30/04:30am 15.0 15.3 13.5 91 0.9 N 4 6 2 3 1018.7 1017.8 0.4
30/04:00am 15.3 15.3 13.7 90 0.9 NNW 6 9 3 5 1018.6 1017.7 0.0
30/03:30am 15.3 15.3 13.5 89 1.0 N 6 13 3 7 1018.2 1017.3 0.0
30/03:00am 15.5 14.5 13.5 88 1.2 NW 11 20 6 11 1018.3 1017.4 0.0
30/02:30am 15.4 14.4 13.4 88 1.2 NW 11 20 6 11 1018.4 1017.5 0.0
30/02:00am 15.1 14.9 13.5 90 0.9 NNW 7 13 4 7 1018.6 1017.7 0.0
30/01:30am 15.0 14.9 13.4 90 0.9 NNW 6 9 3 5 1018.8 1018.0 0.0
30/01:00am 15.0 15.0 13.7 92 0.8 NNW 6 9 3 5 1018.8 1018.0 0.0
30/12:30am 14.9 14.9 13.6 92 0.8 N 6 13 3 7 1019.1 1018.2 0.0
30/12:00am 14.9 14.6 13.4 91 0.9 NNW 7 13 4 7 1019.2 1018.3 0.0
 
Date/Time
EST
Tmp

°C
App
Tmp
°C
Dew
Point
°C
Rel
Hum
%
Delta-T

°C
Wind Press
QNH
hPa
Press
MSL
hPa
Rain
since
9 am
mm
Dir
 
Spd
km/h
Gust
km/h
Spd
kts
Gust
kts
29/11:30pm 14.9 14.6 13.3 90 0.9 NNW 7 13 4 7 1019.3 1018.4 0.0
29/11:00pm 14.9 14.5 13.1 89 1.0 NNW 7 15 4 8 1019.7 1018.8 0.0
29/10:30pm 15.1 14.4 13.3 89 1.0 NNW 9 17 5 9 1019.9 1019.0 0.0
29/10:00pm 15.5 15.2 13.3 87 1.3 N 7 13 4 7 1020.0 1019.1 0.0
29/09:30pm 15.4 15.0 13.1 86 1.3 NNW 7 13 4 7 1020.6 1019.7 0.0
29/09:00pm 15.9 15.4 12.6 81 1.9 NNW 7 13 4 7 1020.3 1019.5 0.0
29/08:30pm 16.6 15.8 12.8 78 2.2 NW 9 15 5 8 1020.4 1019.6 0.0
29/08:00pm 16.9 16.0 12.6 76 2.5 NW 9 17 5 9 1020.2 1019.4 0.0
29/07:30pm 16.4 15.9 12.0 75 2.5 NNW 6 9 3 5 1019.9 1019.0 0.0
29/07:00pm 17.5 16.0 12.0 70 3.1 NW 11 17 6 9 1020.0 1019.1 0.0
29/06:30pm 18.5 16.8 11.1 62 4.2 NW 11 17 6 9 1019.6 1018.7 0.0
29/06:00pm 19.4 17.7 9.9 54 5.2 NW 9 17 5 9 1019.3 1018.4 0.0
29/05:30pm 20.2 18.0 9.2 49 6.0 NW 11 17 6 9 1019.2 1018.3 0.0
29/05:00pm 21.1 17.6 8.7 45 6.7 NW 17 26 9 14 1019.0 1018.1 0.0
29/04:30pm 21.6 18.9 7.4 40 7.6 NW 11 20 6 11 1018.6 1017.7 0.0
29/04:00pm 22.6 20.3 7.6 38 8.1 NNW 9 15 5 8 1018.5 1017.6 0.0
29/03:30pm 22.6 19.7 6.4 35 8.5 NNW 11 24 6 13 1018.8 1018.0 0.0
29/03:00pm 22.7 19.7 6.0 34 8.7 NNW 11 20 6 11 1018.7 1017.8 0.0
29/02:30pm 23.6 19.9 6.4 33 9.1 NW 15 26 8 14 1018.7 1017.8 0.0
29/02:00pm 23.5 20.6 6.7 34 8.9 NNW 11 20 6 11 1019.1 1018.2 0.0
29/01:30pm 22.3 17.3 6.5 36 8.3 NW 22 32 12 17 1019.4 1018.5 0.0
29/01:00pm 22.3 19.2 7.3 38 8.0 NW 13 22 7 12 1019.7 1018.8 0.0
29/12:30pm 22.4 18.0 7.4 38 8.0 NW 20 33 11 18 1020.1 1019.3 0.0
29/12:00pm 21.8 20.3 8.3 42 7.3 NNW 6 13 3 7 1020.9 1020.0 0.0
29/11:30am 23.1 21.5 8.8 40 7.9 N 7 13 4 7 1021.3 1020.4 0.0
29/11:00am 21.5 20.3 9.4 46 6.7 N 6 13 3 7 1022.2 1021.3 0.0
29/10:30am 19.6 18.7 9.2 51 5.7 N 4 7 2 4 1022.5 1021.6 0.0
29/10:00am 18.0 17.4 9.1 56 4.8 N 2 7 1 4 1023.0 1022.2 0.0
29/09:30am 16.5 16.1 9.9 65 3.6 NNW 2 6 1 3 1023.1 1022.3 0.0
29/09:00am 15.3 15.3 9.9 70 2.9 CALM 0 0 0 0 1023.3 1022.5 0.0
29/08:30am 12.5 12.4 9.5 82 1.6 CALM 0 0 0 0 1023.9 1023.0 0.0
29/08:00am 9.8 9.5 8.6 92 0.6 CALM 0 0 0 0 1024.0 1023.1 0.0
29/07:30am 8.3 7.6 7.1 92 0.6 CALM 0 0 0 0 1023.9 1023.0 0.0
29/07:00am 7.3 6.4 5.9 91 0.7 CALM 0 0 0 0 1023.5 1022.7 0.0
29/06:30am 7.5 6.6 6.1 91 0.7 CALM 0 0 0 0 1023.1 1022.3 0.0
29/06:00am 7.3 6.4 5.9 91 0.7 CALM 0 0 0 0 1023.0 1022.2 0.0
29/05:30am 7.8 7.0 6.3 90 0.7 CALM 0 0 0 0 1023.0 1022.2 0.0
29/05:00am 7.6 6.7 6.2 91 0.7 CALM 0 0 0 0 1023.0 1022.2 0.0
29/04:30am 7.3 6.4 5.9 91 0.7 CALM 0 0 0 0 1022.9 1022.1 0.0
29/04:00am 7.0 6.0 5.5 90 0.7 CALM 0 0 0 0 1023.0 1022.2 0.0
29/03:30am 6.8 5.6 4.5 85 1.0 CALM 0 0 0 0 1023.0 1022.2 0.0
29/03:00am 8.3 7.4 5.9 85 1.1 CALM 0 0 0 0 1023.0 1022.2 0.0
29/02:30am 8.5 7.7 6.6 88 0.9 CALM 0 0 0 0 1023.3 1022.5 0.0
29/02:00am 8.6 7.8 6.6 87 1.0 CALM 0 0 0 0 1023.3 1022.5 0.0
29/01:30am 8.4 7.5 6.0 85 1.1 CALM 0 0 0 0 1023.8 1022.9 0.0
29/01:00am 8.6 7.6 5.5 81 1.4 CALM 0 0 0 0 1023.8 1022.9 0.0
29/12:30am 10.5 9.3 6.6 77 1.9 NW 2 2 1 1 1023.9 1023.0 0.0
29/12:00am 11.3 10.6 6.8 74 2.2 CALM 0 0 0 0 1023.9 1023.0 0.0
 
Date/Time
EST
Tmp

°C
App
Tmp
°C
Dew
Point
°C
Rel
Hum
%
Delta-T

°C
Wind Press
QNH
hPa
Press
MSL
hPa
Rain
since
9 am
mm
Dir
 
Spd
km/h
Gust
km/h
Spd
kts
Gust
kts
28/11:30pm 11.5 10.9 7.4 76 2.1 CALM 0 4 0 2 1024.2 1023.4 0.0
28/11:00pm 10.4 9.6 6.7 78 1.8 CALM 0 0 0 0 1024.3 1023.5 0.0
28/10:30pm 9.8 8.8 5.8 76 1.9 CALM 0 0 0 0 1024.3 1023.5 0.0
28/10:00pm 11.2 10.4 6.3 72 2.4 CALM 0 0 0 0 1024.2 1023.4 0.0
28/09:30pm 11.6 10.8 6.7 72 2.4 CALM 0 0 0 0 1024.3 1023.5 0.0
28/09:00pm 12.5 11.7 6.3 66 3.0 CALM 0 0 0 0 1024.2 1023.4 0.0
28/08:30pm 13.1 12.4 6.9 66 3.1 CALM 0 0 0 0 1024.0 1023.1 0.0
28/08:00pm 13.4 11.6 7.0 65 3.2 NNW 6 6 3 3 1023.9 1023.0 0.0
28/07:30pm 14.0 12.5 6.8 62 3.6 NNW 4 7 2 4 1023.8 1022.9 0.0
28/07:00pm 14.1 13.3 6.7 61 3.7 CALM 0 0 0 0 1023.6 1022.8 0.0
28/06:30pm 15.3 14.5 6.6 56 4.4 CALM 0 0 0 0 1023.6 1022.8 0.0
28/06:00pm 15.1 14.3 6.7 57 4.2 CALM 0 0 0 0 1023.5 1022.7 0.0
28/05:30pm 15.9 14.9 5.5 50 5.2 CALM 0 0 0 0 1023.3 1022.5 0.0
28/05:00pm 18.4 16.2 5.3 42 6.6 NW 6 9 3 5 1022.8 1022.0 0.0
28/04:30pm 20.3 16.7 4.8 36 7.8 NW 13 19 7 10 1022.7 1021.8 0.0
28/04:00pm 22.0 18.4 5.0 33 8.7 WNW 13 19 7 10 1022.7 1021.8 0.0
28/03:30pm 22.1 17.7 4.7 32 8.9 WNW 17 24 9 13 1022.7 1021.8 0.0
28/03:00pm 22.4 18.8 4.9 32 8.9 WNW 13 19 7 10 1022.7 1021.8 0.0
28/02:30pm 22.5 18.6 5.4 33 8.8 W 15 24 8 13 1022.7 1021.8 0.0
28/02:00pm 22.6 18.0 6.4 35 8.5 W 20 30 11 16 1022.7 1021.8 0.0
28/01:30pm 22.2 17.8 6.4 36 8.3 W 19 28 10 15 1023.0 1022.2 0.0
28/01:00pm 21.1 17.1 6.6 39 7.6 W 17 26 9 14 1023.0 1022.2 0.0
28/12:30pm 21.6 18.5 7.4 40 7.6 WNW 13 20 7 11 1023.3 1022.5 0.0
28/12:00pm 21.8 18.5 8.0 41 7.4 NW 15 24 8 13 1023.8 1022.9 0.0
28/11:30am 21.0 17.3 8.0 43 7.0 NW 17 24 9 13 1024.1 1023.3 0.0
28/11:00am 20.4 18.9 8.4 46 6.4 NNW 6 22 3 12 1024.5 1023.7 0.0
28/10:30am 18.6 17.4 9.4 55 5.0 NNW 6 11 3 6 1024.7 1023.9 0.0
28/10:00am 16.7 16.6 10.8 68 3.2 NNE 2 6 1 3 1024.9 1024.1 0.0
28/09:30am 15.0 15.1 10.2 73 2.6 CALM 0 0 0 0 1025.1 1024.3 0.0
28/09:00am 13.1 13.3 10.5 84 1.4 CALM 0 0 0 0 1025.2 1024.4 0.0
28/08:30am 11.6 11.7 10.0 90 0.8 CALM 0 0 0 0 1025.1 1024.3 0.0
28/08:00am 10.5 10.3 9.1 91 0.7 CALM 0 0 0 0 1024.9 1024.1 0.0
28/07:30am 9.7 9.4 8.8 94 0.5 CALM 0 0 0 0 1024.5 1023.7 0.0
28/07:00am 8.7 7.8 7.9 95 0.4 NNE 2 6 1 3 1024.0 1023.1 0.0
28/06:30am 7.3 6.4 6.2 93 0.5 CALM 0 2 0 1 1023.9 1023.0 0.0
28/06:00am 7.8 7.2 7.2 96 0.3 CALM 0 0 0 0 1023.8 1022.9 0.0
28/05:30am 7.9 7.3 7.5 97 0.2 CALM 0 0 0 0 1023.9 1023.0 0.0
28/05:00am 6.9 6.1 6.3 96 0.3 CALM 0 0 0 0 1023.9 1023.0 0.0
28/04:30am 5.4 4.1 4.1 91 0.6 CALM 0 0 0 0 1023.9 1023.0 0.0
28/04:00am 7.8 7.2 7.2 96 0.3 CALM 0 0 0 0 1023.8 1022.9 0.0
28/03:30am 6.7 5.7 5.7 93 0.5 CALM 0 0 0 0 1023.8 1022.9 0.0
28/03:00am 7.8 7.1 6.9 94 0.4 CALM 0 0 0 0 1023.9 1023.0 0.0
28/02:30am 8.0 7.4 7.4 96 0.3 CALM 0 0 0 0 1024.0 1023.1 0.0
28/02:00am 7.3 6.4 6.2 93 0.5 CALM 0 0 0 0 1024.1 1023.3 0.0
28/01:30am 8.1 7.5 7.2 94 0.4 CALM 0 0 0 0 1024.2 1023.4 0.0
28/01:00am 7.7 6.9 6.3 91 0.7 CALM 0 0 0 0 1024.1 1023.3 0.0
28/12:30am 8.5 7.8 7.0 90 0.7 CALM 0 0 0 0 1024.1 1023.3 0.0
28/12:00am 9.1 7.7 7.2 88 0.9 N 4 6 2 3 1024.3 1023.5 0.0
 
Date/Time
EST
Tmp

°C
App
Tmp
°C
Dew
Point
°C
Rel
Hum
%
Delta-T

°C
Wind Press
QNH
hPa
Press
MSL
hPa
Rain
since
9 am
mm
Dir
 
Spd
km/h
Gust
km/h
Spd
kts
Gust
kts
27/11:30pm 9.1 8.3 6.7 85 1.2 CALM 0 2 0 1 1024.4 1023.6 0.0
27/11:00pm 9.3 7.7 6.4 82 1.4 N 4 6 2 3 1024.7 1023.9 0.0
27/10:30pm 10.6 9.2 7.3 80 1.6 NNW 4 9 2 5 1024.9 1024.1 0.0
27/10:00pm 9.9 8.7 6.3 78 1.7 NNW 2 7 1 4 1025.0 1024.2 0.0
27/09:30pm 10.4 8.9 6.7 78 1.8 N 4 7 2 4 1025.0 1024.2 0.0
27/09:00pm 8.8 7.6 4.8 76 1.8 CALM 0 0 0 0 1024.9 1024.1 0.0
27/08:30pm 9.6 8.5 5.0 73 2.2 CALM 0 0 0 0 1025.0 1024.2 0.0
27/08:00pm 10.9 9.7 4.8 66 2.9 CALM 0 0 0 0 1024.9 1024.1 0.0
27/07:30pm 12.0 11.0 5.6 65 3.1 CALM 0 0 0 0 1024.8 1024.0 0.0
27/07:00pm 12.5 11.4 5.2 61 3.5 CALM 0 0 0 0 1024.6 1023.8 0.0
27/06:30pm 12.7 11.6 4.9 59 3.7 CALM 0 0 0 0 1024.3 1023.5 0.0
27/06:00pm 13.6 12.5 5.0 56 4.1 CALM 0 0 0 0 1024.0 1023.1 0.0
27/05:30pm 15.4 13.1 4.8 49 5.2 NNW 6 9 3 5 1023.8 1022.9 0.0
27/05:00pm 19.0 16.9 5.8 42 6.7 NNW 6 9 3 5 1023.4 1022.6 0.0
27/04:30pm 20.8 18.6 5.2 36 7.9 NNW 6 11 3 6 1023.3 1022.5 0.0
27/04:00pm 21.5 18.6 4.6 33 8.5 NNW 9 15 5 8 1023.2 1022.4 0.0
27/03:30pm 21.7 19.1 4.3 32 8.8 NNW 7 15 4 8 1023.3 1022.5 0.0
27/03:00pm 22.0 18.6 4.1 31 9.0 NNW 11 22 6 12 1023.3 1022.5 0.0
27/02:30pm 21.6 17.4 3.8 31 8.9 NW 15 22 8 12 1023.2 1022.4 0.0
27/02:00pm 21.5 18.2 4.6 33 8.5 NNW 11 17 6 9 1023.3 1022.5 0.0
27/01:30pm 21.0 17.3 6.5 39 7.6 NW 15 26 8 14 1023.6 1022.8 0.0
27/01:00pm 21.0 18.2 6.9 40 7.4 NNW 11 20 6 11 1024.0 1023.1 0.0
27/12:30pm 20.7 17.3 5.9 38 7.6 NNW 13 24 7 13 1024.4 1023.6 0.0
27/12:00pm 19.2 15.9 6.3 43 6.6 NW 13 20 7 11 1025.0 1024.2 0.0
27/11:30am 19.0 16.2 7.1 46 6.2 NNW 11 28 6 15 1025.5 1024.7 0.0
27/11:00am 18.9 16.4 8.3 50 5.6 NNW 11 22 6 12 1025.8 1025.0 0.0
27/10:30am 17.7 15.6 8.3 54 5.0 NNW 9 19 5 10 1026.4 1025.6 0.0
27/10:00am 16.4 14.0 8.6 60 4.1 NNW 11 20 6 11 1027.0 1026.2 0.0

Latest Capital City Observations: Canberra | Sydney | Melbourne | Brisbane | Adelaide | Perth | Hobart | Darwin

Other Formats:

Comma delimited format used in spreadsheet applications
http://www.bom.gov.au/fwo/IDN60903/IDN60903.94927.axf

JavaScript Object Notation format (JSON) in row-major order
http://www.bom.gov.au/fwo/IDN60903/IDN60903.94927.json